createdAt,value
2023-05-16T00:00:10.878Z,3.28
2023-05-16T00:02:40.732Z,2.70
2023-05-16T00:05:15.161Z,11.20
2023-05-16T00:07:46.338Z,2.85
2023-05-16T00:10:15.018Z,2.67
2023-05-16T00:13:26.720Z,2.30
2023-05-16T00:15:55.495Z,2.90
2023-05-16T00:18:26.175Z,2.53
2023-05-16T00:20:55.532Z,2.35
2023-05-16T00:23:25.653Z,2.38
2023-05-16T00:25:54.054Z,2.53
2023-05-16T00:28:22.433Z,2.58
2023-05-16T00:30:50.887Z,3.08
2023-05-16T00:33:19.380Z,2.83
2023-05-16T00:35:47.885Z,2.50
2023-05-16T00:38:16.332Z,2.92
2023-05-16T00:40:46.717Z,2.70
2023-05-16T00:43:15.203Z,2.97
2023-05-16T00:45:44.137Z,2.67
2023-05-16T00:48:13.482Z,3.72
2023-05-16T00:50:42.169Z,3.00
2023-05-16T00:53:10.551Z,2.67
2023-05-16T00:55:39.332Z,3.20
2023-05-16T00:58:09.088Z,2.80
2023-05-16T01:00:37.673Z,2.97
2023-05-16T01:03:06.777Z,2.92
2023-05-16T01:05:35.346Z,2.92
2023-05-16T01:08:03.838Z,4.50
2023-05-16T01:10:37.368Z,4.18
2023-05-16T01:13:13.472Z,3.83
2023-05-16T01:15:46.995Z,2.80
2023-05-16T01:18:21.504Z,2.67
2023-05-16T01:20:55.745Z,3.03
2023-05-16T01:23:38.535Z,2.42
2023-05-16T01:26:19.752Z,2.83
2023-05-16T01:28:48.428Z,3.20
2023-05-16T01:31:17.713Z,2.80
2023-05-16T01:33:46.284Z,2.90
2023-05-16T01:36:21.555Z,2.80
2023-05-16T01:39:04.678Z,3.42
2023-05-16T01:41:42.331Z,3.50
2023-05-16T01:44:19.993Z,2.88
2023-05-16T01:46:49.485Z,2.65
2023-05-16T01:49:21.526Z,2.60
2023-05-16T01:51:52.931Z,3.47
2023-05-16T01:54:21.689Z,3.45
2023-05-16T01:56:53.858Z,2.78
2023-05-16T01:59:23.185Z,2.63
2023-05-16T02:01:52.068Z,2.88
2023-05-16T02:04:20.840Z,2.58
2023-05-16T02:06:49.441Z,4.22
2023-05-16T02:09:17.981Z,2.80
2023-05-16T02:11:47.223Z,2.92
2023-05-16T02:14:16.932Z,3.10
2023-05-16T02:16:45.520Z,3.10
2023-05-16T02:19:14.176Z,2.58
2023-05-16T02:21:42.646Z,2.72
2023-05-16T02:24:11.295Z,2.97
2023-05-16T02:26:39.645Z,2.95
2023-05-16T02:29:08.234Z,4.93
2023-05-16T02:31:38.596Z,2.70
2023-05-16T02:34:07.453Z,2.88
2023-05-16T02:36:36.195Z,2.75
2023-05-16T02:39:05.139Z,3.00
2023-05-16T02:41:33.498Z,2.50
2023-05-16T02:44:02.057Z,2.63
2023-05-16T02:46:31.653Z,2.95
2023-05-16T02:49:01.819Z,2.80
2023-05-16T02:51:30.461Z,2.67
2023-05-16T02:54:00.043Z,2.90
2023-05-16T02:56:28.882Z,2.75
2023-05-16T02:58:57.316Z,2.90
2023-05-16T03:01:25.883Z,2.70
2023-05-16T03:03:54.357Z,2.58
2023-05-16T03:06:24.160Z,2.72
2023-05-16T03:08:52.698Z,4.32
2023-05-16T03:11:22.981Z,3.22
2023-05-16T03:13:51.627Z,2.90
2023-05-16T03:16:20.027Z,2.80
2023-05-16T03:18:48.515Z,2.97
2023-05-16T03:21:17.052Z,2.78
2023-05-16T03:23:46.827Z,3.13
2023-05-16T03:26:15.367Z,2.70
2023-05-16T03:28:43.961Z,3.15
2023-05-16T03:31:12.490Z,3.20
2023-05-16T03:33:42.400Z,4.18
2023-05-16T03:36:13.605Z,3.20
2023-05-16T03:38:41.930Z,3.28
2023-05-16T03:41:11.699Z,3.30
2023-05-16T03:43:40.368Z,3.25
2023-05-16T03:46:08.865Z,3.22
2023-05-16T03:48:37.439Z,3.17
2023-05-16T03:51:06.245Z,3.28
2023-05-16T03:53:34.630Z,3.67
2023-05-16T03:56:04.245Z,3.33
2023-05-16T03:58:34.080Z,2.90
2023-05-16T04:01:02.820Z,3.30
2023-05-16T04:03:31.521Z,3.15
2023-05-16T04:05:59.927Z,3.42
2023-05-16T04:08:28.774Z,3.40
2023-05-16T04:10:57.184Z,3.35
2023-05-16T04:13:25.800Z,3.78
2023-05-16T04:15:55.605Z,2.70
2023-05-16T04:18:24.653Z,3.10
2023-05-16T04:20:53.029Z,2.92
2023-05-16T04:23:21.432Z,2.90
2023-05-16T04:25:50.888Z,3.00
2023-05-16T04:28:19.389Z,3.38
2023-05-16T04:30:48.890Z,2.95
2023-05-16T04:33:18.878Z,3.10
2023-05-16T04:35:47.379Z,3.10
2023-05-16T04:38:15.939Z,4.15
2023-05-16T04:40:44.338Z,3.92
2023-05-16T04:43:13.662Z,4.13
2023-05-16T04:45:45.520Z,3.47
2023-05-16T04:48:14.125Z,3.72
2023-05-16T04:50:44.072Z,3.00
2023-05-16T04:53:12.452Z,3.13
2023-05-16T04:55:41.135Z,3.38
2023-05-16T04:58:09.524Z,2.88
2023-05-16T05:00:38.246Z,2.60
2023-05-16T05:03:06.816Z,2.88
2023-05-16T05:05:35.708Z,3.03
2023-05-16T05:08:06.633Z,3.63
2023-05-16T05:10:35.200Z,3.38
2023-05-16T05:13:03.680Z,3.13
2023-05-16T05:15:32.415Z,4.30
2023-05-16T05:18:00.879Z,3.05
2023-05-16T05:20:29.429Z,3.30
2023-05-16T05:22:58.013Z,6.35
2023-05-16T05:25:28.286Z,3.50
2023-05-16T05:27:57.032Z,5.57
2023-05-16T05:30:25.932Z,5.45
2023-05-16T05:32:55.176Z,3.15
2023-05-16T05:35:23.542Z,4.90
2023-05-16T05:37:51.955Z,5.30
2023-05-16T05:40:20.690Z,4.60
2023-05-16T05:42:50.513Z,4.15
2023-05-16T05:45:19.244Z,3.78
2023-05-16T05:47:47.601Z,4.55
2023-05-16T05:50:16.851Z,5.18
2023-05-16T05:52:45.422Z,4.30
2023-05-16T05:55:13.822Z,4.30
2023-05-16T05:57:42.435Z,3.20
2023-05-16T06:00:14.129Z,4.03
2023-05-16T06:02:42.928Z,3.97
2023-05-16T06:05:11.803Z,3.70
2023-05-16T06:07:40.432Z,3.83
2023-05-16T06:10:10.511Z,4.47
2023-05-16T06:12:39.152Z,3.47
2023-05-16T06:15:11.457Z,3.80
2023-05-16T06:17:42.263Z,3.70
2023-05-16T06:20:11.950Z,4.45
2023-05-16T06:22:40.336Z,4.60
2023-05-16T06:25:10.104Z,12.70
2023-05-16T06:27:38.767Z,19.83
2023-05-16T06:30:09.985Z,28.83
2023-05-16T06:32:38.895Z,29.17
2023-05-16T06:35:12.166Z,25.25
2023-05-16T06:37:42.960Z,20.70
2023-05-16T06:40:13.144Z,20.88
2023-05-16T06:42:41.786Z,14.93
2023-05-16T06:45:11.827Z,15.90
2023-05-16T06:47:40.341Z,16.73
2023-05-16T06:50:11.793Z,14.10
2023-05-16T06:52:40.259Z,10.20
2023-05-16T06:55:10.125Z,14.52
2023-05-16T06:57:38.620Z,9.57
2023-05-16T07:00:09.960Z,8.93
2023-05-16T07:02:39.065Z,7.80
2023-05-16T07:05:10.655Z,8.32
2023-05-16T07:07:39.180Z,10.70
2023-05-16T07:10:08.755Z,8.73
2023-05-16T07:12:38.575Z,11.32
2023-05-16T07:15:08.942Z,8.38
2023-05-16T07:17:37.772Z,10.43
2023-05-16T07:20:08.307Z,7.00
2023-05-16T07:22:38.081Z,11.23
2023-05-16T07:25:12.704Z,8.63
2023-05-16T07:27:44.751Z,6.72
2023-05-16T07:30:15.142Z,7.25
2023-05-16T07:32:43.768Z,6.18
2023-05-16T07:35:15.318Z,7.53
2023-05-16T07:37:45.082Z,12.30
2023-05-16T07:40:14.962Z,6.82
2023-05-16T07:42:43.393Z,8.60
2023-05-16T07:45:11.984Z,7.88
2023-05-16T07:47:40.935Z,8.18
2023-05-16T07:50:10.831Z,7.68
2023-05-16T07:52:39.410Z,8.93
2023-05-16T07:55:11.140Z,8.80
2023-05-16T07:57:39.817Z,6.03
2023-05-16T08:00:10.213Z,7.68
2023-05-16T08:02:38.801Z,5.97
2023-05-16T08:05:09.618Z,10.38
2023-05-16T08:07:38.129Z,8.60
2023-05-16T08:10:12.557Z,7.45
2023-05-16T08:12:41.851Z,9.07
2023-05-16T08:15:11.565Z,11.35
2023-05-16T08:17:40.085Z,14.25
2023-05-16T08:20:09.832Z,15.73
2023-05-16T08:22:38.336Z,20.70
2023-05-16T08:25:09.524Z,18.35
2023-05-16T08:27:38.048Z,31.05
2023-05-16T08:30:08.377Z,32.05
2023-05-16T08:32:37.420Z,35.88
2023-05-16T08:35:07.107Z,43.33
2023-05-16T08:37:36.204Z,51.08
2023-05-16T08:40:10.219Z,29.70
2023-05-16T08:42:40.245Z,35.00
2023-05-16T08:45:09.969Z,23.10
2023-05-16T08:47:38.695Z,45.58
2023-05-16T08:50:09.860Z,35.03
2023-05-16T08:52:40.560Z,43.30
2023-05-16T08:55:11.644Z,53.17
2023-05-16T08:57:42.122Z,54.50
2023-05-16T09:00:13.140Z,47.25
2023-05-16T09:02:41.969Z,34.25
2023-05-16T09:05:12.974Z,38.00
2023-05-16T09:07:41.760Z,37.55
2023-05-16T09:10:11.530Z,25.77
2023-05-16T09:12:42.364Z,42.55
2023-05-16T09:15:11.731Z,43.97
2023-05-16T09:17:44.372Z,43.38
2023-05-16T09:20:14.767Z,48.72
2023-05-16T09:22:52.025Z,46.03
2023-05-16T09:25:29.479Z,25.75
2023-05-16T09:28:01.581Z,30.92
2023-05-16T09:30:31.896Z,30.73
2023-05-16T09:33:00.610Z,19.65
2023-05-16T09:38:00.525Z,24.50
2023-05-16T09:40:28.926Z,18.90
2023-05-16T09:43:06.042Z,21.70
2023-05-16T09:45:34.795Z,26.92
2023-05-16T09:48:05.912Z,22.00
2023-05-16T09:50:35.399Z,18.38
2023-05-16T09:53:04.180Z,22.00
2023-05-16T09:55:33.117Z,14.85
2023-05-16T09:58:01.755Z,22.15
2023-05-16T10:00:33.342Z,24.85
2023-05-16T10:03:05.776Z,20.40
2023-05-16T10:05:34.927Z,24.35
2023-05-16T10:08:04.838Z,21.02
2023-05-16T10:10:35.862Z,15.93
2023-05-16T10:13:04.692Z,13.82
2023-05-16T10:15:36.763Z,20.02
2023-05-16T10:18:08.394Z,29.75
2023-05-16T10:20:36.893Z,37.15
2023-05-16T10:23:05.320Z,17.88
2023-05-16T10:25:36.183Z,22.63
2023-05-16T10:28:04.987Z,19.00
2023-05-16T10:30:35.810Z,21.05
2023-05-16T10:33:04.510Z,18.40
2023-05-16T10:35:33.262Z,15.45
2023-05-16T10:38:01.876Z,17.13
2023-05-16T10:40:30.310Z,13.85
2023-05-16T10:42:59.135Z,19.52
2023-05-16T10:45:28.048Z,17.52
2023-05-16T10:47:59.840Z,13.85
2023-05-16T10:50:36.033Z,13.70
2023-05-16T10:53:19.850Z,18.33
2023-05-16T10:55:52.592Z,11.57
2023-05-16T10:58:25.722Z,13.52
2023-05-16T11:01:20.688Z,10.10
2023-05-16T11:04:11.299Z,10.60
2023-05-16T11:06:48.328Z,9.23
2023-05-16T11:09:23.574Z,7.93
2023-05-16T11:12:00.777Z,8.38
2023-05-16T11:14:32.429Z,8.77
2023-05-16T11:17:10.109Z,6.85
2023-05-16T11:19:44.866Z,7.15
2023-05-16T11:22:31.779Z,8.68
2023-05-16T11:25:02.971Z,6.82
2023-05-16T11:27:32.267Z,5.97
2023-05-16T11:30:04.625Z,9.05
2023-05-16T11:32:35.266Z,6.47
2023-05-16T11:35:05.944Z,5.72
2023-05-16T11:37:34.395Z,5.80
2023-05-16T11:40:03.654Z,5.80
2023-05-16T11:42:35.832Z,5.43
2023-05-16T11:45:08.820Z,5.75
2023-05-16T11:47:39.155Z,7.30
2023-05-16T11:50:13.081Z,5.38
2023-05-16T11:52:41.687Z,6.95
2023-05-16T11:55:11.936Z,7.20
2023-05-16T11:57:42.147Z,5.40
2023-05-16T12:00:17.903Z,4.25
2023-05-16T12:02:47.996Z,5.15
2023-05-16T12:05:18.976Z,4.80
2023-05-16T12:07:47.550Z,8.13
2023-05-16T12:10:16.975Z,4.80
2023-05-16T12:12:46.764Z,5.50
2023-05-16T12:15:17.908Z,5.38
2023-05-16T12:17:46.668Z,5.13
2023-05-16T12:20:16.821Z,5.32
2023-05-16T12:22:47.174Z,6.05
2023-05-16T12:25:34.016Z,5.05
2023-05-16T12:28:03.756Z,6.05
2023-05-16T12:30:33.437Z,5.20
2023-05-16T12:33:06.992Z,8.73
2023-05-16T12:35:37.799Z,5.85
2023-05-16T12:38:07.832Z,5.60
2023-05-16T12:40:38.294Z,6.03
2023-05-16T12:43:08.841Z,8.82
2023-05-16T12:45:37.241Z,8.38
2023-05-16T12:48:14.217Z,5.82
2023-05-16T12:50:42.884Z,7.95
2023-05-16T12:53:14.631Z,5.47
2023-05-16T12:55:43.288Z,7.05
2023-05-16T12:58:12.189Z,6.13
2023-05-16T13:00:40.733Z,5.88
2023-05-16T13:03:09.646Z,5.10
2023-05-16T13:05:38.178Z,5.40
2023-05-16T13:08:07.519Z,5.15
2023-05-16T13:10:37.434Z,6.38
2023-05-16T13:13:05.854Z,5.50
2023-05-16T13:15:34.449Z,5.38
2023-05-16T13:18:03.206Z,5.80
2023-05-16T13:20:31.652Z,5.30
2023-05-16T13:23:00.240Z,5.15
2023-05-16T13:25:28.901Z,5.32
2023-05-16T13:27:58.922Z,7.38
2023-05-16T13:30:29.027Z,5.28
2023-05-16T13:32:59.296Z,5.40
2023-05-16T13:35:28.285Z,7.05
2023-05-16T13:37:56.927Z,5.45
2023-05-16T13:40:25.526Z,5.93
2023-05-16T13:42:54.022Z,9.52
2023-05-16T13:45:23.982Z,6.88
2023-05-16T13:47:52.677Z,5.82
2023-05-16T13:50:21.642Z,6.28
2023-05-16T13:52:50.080Z,5.28
2023-05-16T13:55:19.870Z,5.65
2023-05-16T13:57:48.891Z,6.50
2023-05-16T14:00:44.397Z,5.90
2023-05-16T14:03:09.479Z,5.85
2023-05-16T14:05:38.183Z,5.40
2023-05-16T14:08:07.966Z,6.50
2023-05-16T14:10:36.703Z,5.45
2023-05-16T14:13:05.235Z,4.78
2023-05-16T14:15:34.015Z,4.45
2023-05-16T14:18:05.147Z,5.22
2023-05-16T14:20:35.094Z,4.82
2023-05-16T14:23:03.963Z,5.35
2023-05-16T14:25:32.390Z,5.07
2023-05-16T14:28:00.860Z,4.85
2023-05-16T14:30:29.608Z,4.70
2023-05-16T14:33:00.382Z,4.95
2023-05-16T14:35:29.708Z,4.57
2023-05-16T14:37:59.791Z,4.72
2023-05-16T14:40:28.235Z,5.35
2023-05-16T14:42:56.715Z,5.57
2023-05-16T14:45:25.561Z,5.95
2023-05-16T14:47:54.504Z,4.72
2023-05-16T14:50:23.485Z,4.90
2023-05-16T14:52:53.180Z,5.45
2023-05-16T14:55:24.057Z,6.97
2023-05-16T14:57:59.017Z,4.88
2023-05-16T15:00:28.910Z,7.53
2023-05-16T15:02:57.725Z,4.97
2023-05-16T15:05:26.484Z,5.07
2023-05-16T15:07:55.223Z,5.15
2023-05-16T15:10:25.335Z,4.38
2023-05-16T15:12:54.655Z,9.18
2023-05-16T15:15:23.107Z,8.98
2023-05-16T15:17:51.671Z,5.70
2023-05-16T15:20:22.523Z,5.47
2023-05-16T15:22:51.375Z,5.40
2023-05-16T15:25:21.002Z,4.40
2023-05-16T15:27:51.253Z,4.90
2023-05-16T15:30:19.799Z,5.20
2023-05-16T15:32:48.930Z,7.90
2023-05-16T15:35:17.508Z,6.57
2023-05-16T15:37:46.136Z,5.00
2023-05-16T15:40:15.537Z,5.35
2023-05-16T15:42:44.984Z,7.38
2023-05-16T15:45:15.087Z,7.43
2023-05-16T15:47:43.619Z,5.43
2023-05-16T15:50:13.692Z,6.95
2023-05-16T15:52:42.271Z,7.50
2023-05-16T15:55:12.691Z,4.88
2023-05-16T15:57:42.251Z,7.18
2023-05-16T16:00:12.420Z,6.25
2023-05-16T16:02:45.029Z,7.38
2023-05-16T16:05:13.634Z,5.65
2023-05-16T16:07:42.091Z,8.98
2023-05-16T16:10:12.739Z,5.82
2023-05-16T16:12:41.339Z,7.28
2023-05-16T16:15:12.266Z,6.22
2023-05-16T16:17:42.276Z,7.25
2023-05-16T16:20:12.556Z,6.18
2023-05-16T16:22:41.160Z,8.63
2023-05-16T16:25:10.304Z,8.45
2023-05-16T16:27:38.793Z,6.20
2023-05-16T16:30:09.662Z,6.93
2023-05-16T16:32:38.450Z,8.13
2023-05-16T16:35:09.693Z,7.45
2023-05-16T16:37:38.219Z,8.05
2023-05-16T16:40:10.391Z,6.97
2023-05-16T16:42:40.549Z,6.60
2023-05-16T16:45:10.765Z,7.95
2023-05-16T16:47:40.488Z,7.82
2023-05-16T16:50:13.010Z,6.35
2023-05-16T16:52:41.554Z,6.25
2023-05-16T16:55:10.957Z,6.25
2023-05-16T16:57:39.469Z,7.13
2023-05-16T17:00:11.621Z,7.95
2023-05-16T17:02:40.368Z,8.00
2023-05-16T17:05:11.861Z,11.07
2023-05-16T17:07:40.593Z,6.78
2023-05-16T17:10:10.611Z,7.78
2023-05-16T17:12:46.230Z,7.13
2023-05-16T17:15:14.657Z,7.10
2023-05-16T17:17:43.664Z,7.45
2023-05-16T17:20:14.278Z,7.38
2023-05-16T17:22:43.059Z,9.35
2023-05-16T17:25:12.308Z,11.70
2023-05-16T17:27:41.413Z,9.98
2023-05-16T17:30:12.003Z,7.80
2023-05-16T17:32:40.825Z,7.85
2023-05-16T17:35:09.901Z,9.25
2023-05-16T17:37:39.937Z,12.93
2023-05-16T17:40:12.024Z,7.97
2023-05-16T17:42:40.624Z,8.43
2023-05-16T17:45:12.190Z,14.48
2023-05-16T17:47:41.442Z,13.60
2023-05-16T17:50:12.045Z,10.90
2023-05-16T17:52:41.992Z,12.63
2023-05-16T17:55:11.411Z,10.65
2023-05-16T17:57:40.038Z,15.85
2023-05-16T18:00:10.530Z,9.68
2023-05-16T18:02:39.471Z,12.20
2023-05-16T18:05:10.568Z,15.43
2023-05-16T18:07:39.045Z,11.02
2023-05-16T18:10:10.622Z,8.75
2023-05-16T18:12:39.258Z,11.68
2023-05-16T18:15:10.720Z,9.43
2023-05-16T18:17:39.227Z,10.40
2023-05-16T18:20:11.096Z,8.00
2023-05-16T18:22:39.744Z,7.00
2023-05-16T18:25:11.684Z,8.75
2023-05-16T18:27:40.158Z,10.20
2023-05-16T18:30:10.922Z,10.43
2023-05-16T18:32:39.634Z,7.28
2023-05-16T18:35:09.431Z,7.30
2023-05-16T18:37:38.676Z,9.07
2023-05-16T18:40:10.855Z,7.70
2023-05-16T18:42:39.616Z,8.18
2023-05-16T18:45:09.801Z,8.82
2023-05-16T18:47:38.318Z,10.85
2023-05-16T18:50:08.496Z,8.07
2023-05-16T18:52:37.050Z,8.50
2023-05-16T18:55:06.327Z,11.52
2023-05-16T18:57:36.183Z,8.13
2023-05-16T19:00:06.105Z,7.57
2023-05-16T19:05:10.671Z,7.95
2023-05-16T19:07:39.492Z,8.45
2023-05-16T19:10:09.776Z,10.48
2023-05-16T19:12:39.701Z,7.60
2023-05-16T19:15:10.624Z,7.10
2023-05-16T19:17:41.880Z,7.78
2023-05-16T19:20:11.230Z,9.43
2023-05-16T19:22:39.743Z,6.95
2023-05-16T19:25:09.493Z,6.90
2023-05-16T19:27:39.340Z,8.38
2023-05-16T19:30:10.030Z,11.73
2023-05-16T19:32:38.804Z,5.93
2023-05-16T19:35:08.092Z,7.63
2023-05-16T19:37:36.612Z,8.75
2023-05-16T19:40:05.477Z,7.95
2023-05-16T19:42:34.242Z,8.30
2023-05-16T19:45:04.214Z,6.68
2023-05-16T19:47:32.763Z,6.85
2023-05-16T19:50:02.536Z,8.73
2023-05-16T19:52:31.167Z,7.18
2023-05-16T19:54:59.886Z,8.73
2023-05-16T19:57:28.432Z,6.40
2023-05-16T19:59:56.903Z,6.60
2023-05-16T20:02:27.072Z,6.88
2023-05-16T20:04:55.968Z,6.88
2023-05-16T20:07:24.479Z,8.05
2023-05-16T20:09:52.919Z,6.22
2023-05-16T20:12:22.216Z,6.43
2023-05-16T20:14:51.802Z,6.57
2023-05-16T20:17:20.577Z,5.93
2023-05-16T20:19:50.653Z,7.85
2023-05-16T20:22:22.427Z,6.50
2023-05-16T20:24:51.073Z,6.10
2023-05-16T20:27:21.719Z,5.75
2023-05-16T20:29:52.485Z,5.95
2023-05-16T20:32:20.960Z,7.75
2023-05-16T20:34:50.838Z,5.88
2023-05-16T20:37:19.429Z,5.90
2023-05-16T20:39:47.844Z,7.32
2023-05-16T20:42:16.364Z,6.00
2023-05-16T20:44:45.061Z,5.68
2023-05-16T20:47:13.495Z,5.65
2023-05-16T20:49:42.044Z,5.72
2023-05-16T20:52:12.126Z,5.78
2023-05-16T20:54:42.010Z,5.60
2023-05-16T20:57:10.504Z,5.20
2023-05-16T20:59:38.994Z,6.55
2023-05-16T21:02:12.331Z,5.70
2023-05-16T21:04:40.944Z,7.53
2023-05-16T21:07:11.629Z,5.53
2023-05-16T21:09:41.504Z,5.60
2023-05-16T21:12:10.207Z,5.30
2023-05-16T21:14:38.838Z,5.35
2023-05-16T21:17:07.396Z,4.93
2023-05-16T21:19:37.019Z,8.65
2023-05-16T21:22:05.929Z,5.15
2023-05-16T21:24:35.658Z,5.47
2023-05-16T21:27:06.323Z,6.82
2023-05-16T21:29:35.126Z,5.20
2023-05-16T21:32:03.903Z,5.63
2023-05-16T21:34:32.401Z,5.75
2023-05-16T21:37:00.900Z,5.13
2023-05-16T21:39:29.574Z,6.20
2023-05-16T21:41:58.103Z,5.20
2023-05-16T21:44:28.032Z,5.47
2023-05-16T21:46:56.570Z,6.28
2023-05-16T21:49:25.279Z,6.65
2023-05-16T21:51:53.838Z,5.97
2023-05-16T21:54:22.313Z,4.93
2023-05-16T21:56:50.983Z,4.88
2023-05-16T21:59:19.455Z,6.43
2023-05-16T22:01:51.673Z,4.88
2023-05-16T22:04:20.312Z,4.88
2023-05-16T22:06:48.899Z,4.78
2023-05-16T22:09:17.551Z,4.82
2023-05-16T22:11:46.044Z,4.90
2023-05-16T22:14:14.718Z,4.65
2023-05-16T22:16:43.165Z,4.72
2023-05-16T22:19:12.991Z,4.57
2023-05-16T22:21:41.648Z,4.78
2023-05-16T22:24:10.130Z,5.13
2023-05-16T22:26:38.666Z,4.50
2023-05-16T22:29:10.381Z,4.25
2023-05-16T22:31:38.959Z,4.20
2023-05-16T22:34:07.721Z,4.47
2023-05-16T22:36:37.595Z,4.03
2023-05-16T22:39:06.649Z,3.95
2023-05-16T22:41:35.074Z,4.22
2023-05-16T22:44:03.753Z,6.85
2023-05-16T22:46:32.608Z,4.18
2023-05-16T22:49:01.062Z,4.35
2023-05-16T22:51:29.591Z,4.50
2023-05-16T22:53:59.370Z,4.43
2023-05-16T22:56:27.976Z,4.85
2023-05-16T22:58:56.404Z,4.32
2023-05-16T23:01:24.973Z,4.30
2023-05-16T23:03:53.532Z,4.15
2023-05-16T23:06:21.910Z,4.35
2023-05-16T23:08:50.402Z,4.07
2023-05-16T23:11:20.365Z,3.85
2023-05-16T23:13:49.146Z,4.30
2023-05-16T23:16:17.567Z,3.80
2023-05-16T23:18:46.167Z,4.13
2023-05-16T23:21:17.030Z,3.58
2023-05-16T23:23:45.609Z,4.05
2023-05-16T23:26:14.094Z,3.95
2023-05-16T23:28:43.988Z,3.80
2023-05-16T23:31:12.437Z,3.78
2023-05-16T23:33:40.869Z,3.67
2023-05-16T23:36:09.753Z,3.83
2023-05-16T23:38:38.516Z,3.90
2023-05-16T23:41:07.018Z,3.67
2023-05-16T23:43:35.534Z,3.67
2023-05-16T23:46:05.412Z,5.82
2023-05-16T23:48:36.342Z,3.55
2023-05-16T23:51:07.566Z,3.60
2023-05-16T23:53:36.387Z,3.60
2023-05-16T23:56:05.090Z,3.88
2023-05-16T23:58:33.759Z,4.03
